sensor_id;sensor_type;location;lat;lon;timestamp;pressure;altitude;pressure_sealevel;temperature
20736;BMP180;10528;52.124;5.196;2022-12-18T00:01:33;102683.00;;;4.70
20736;BMP180;10528;52.124;5.196;2022-12-18T00:04:08;102667.00;;;4.60
20736;BMP180;10528;52.124;5.196;2022-12-18T00:06:40;102662.00;;;4.60
20736;BMP180;10528;52.124;5.196;2022-12-18T00:09:09;102656.00;;;4.60
20736;BMP180;10528;52.124;5.196;2022-12-18T00:11:36;102644.00;;;4.60
20736;BMP180;10528;52.124;5.196;2022-12-18T00:14:03;102639.00;;;4.60
20736;BMP180;10528;52.124;5.196;2022-12-18T00:16:30;102645.00;;;4.60
20736;BMP180;10528;52.124;5.196;2022-12-18T00:19:00;102651.00;;;4.60
20736;BMP180;10528;52.124;5.196;2022-12-18T00:21:29;102645.00;;;4.50
20736;BMP180;10528;52.124;5.196;2022-12-18T00:23:57;102653.00;;;4.50
20736;BMP180;10528;52.124;5.196;2022-12-18T00:26:31;102658.00;;;4.50
20736;BMP180;10528;52.124;5.196;2022-12-18T00:29:05;102665.00;;;4.50
20736;BMP180;10528;52.124;5.196;2022-12-18T00:31:33;102655.00;;;4.50
20736;BMP180;10528;52.124;5.196;2022-12-18T00:34:00;102641.00;;;4.50
20736;BMP180;10528;52.124;5.196;2022-12-18T00:36:31;102648.00;;;4.50
20736;BMP180;10528;52.124;5.196;2022-12-18T00:39:01;102638.00;;;4.50
20736;BMP180;10528;52.124;5.196;2022-12-18T00:41:28;102645.00;;;4.50
20736;BMP180;10528;52.124;5.196;2022-12-18T00:44:16;102641.00;;;4.40
20736;BMP180;10528;52.124;5.196;2022-12-18T00:46:46;102632.00;;;4.40
20736;BMP180;10528;52.124;5.196;2022-12-18T00:49:16;102639.00;;;4.40
20736;BMP180;10528;52.124;5.196;2022-12-18T00:51:45;102625.00;;;4.30
20736;BMP180;10528;52.124;5.196;2022-12-18T00:54:12;102633.00;;;4.30
20736;BMP180;10528;52.124;5.196;2022-12-18T00:56:40;102646.00;;;4.30
20736;BMP180;10528;52.124;5.196;2022-12-18T00:59:18;102647.00;;;4.30
20736;BMP180;10528;52.124;5.196;2022-12-18T01:01:46;102631.00;;;4.20
20736;BMP180;10528;52.124;5.196;2022-12-18T01:04:14;102630.00;;;4.20
20736;BMP180;10528;52.124;5.196;2022-12-18T01:06:44;102655.00;;;4.20
20736;BMP180;10528;52.124;5.196;2022-12-18T01:09:11;102642.00;;;4.10
20736;BMP180;10528;52.124;5.196;2022-12-18T01:11:38;102654.00;;;4.10
20736;BMP180;10528;52.124;5.196;2022-12-18T01:14:05;102649.00;;;4.10
20736;BMP180;10528;52.124;5.196;2022-12-18T01:16:32;102638.00;;;4.10
20736;BMP180;10528;52.124;5.196;2022-12-18T01:18:59;102645.00;;;4.10
20736;BMP180;10528;52.124;5.196;2022-12-18T01:21:26;102650.00;;;4.10
20736;BMP180;10528;52.124;5.196;2022-12-18T01:23:55;102644.00;;;4.10
20736;BMP180;10528;52.124;5.196;2022-12-18T01:26:24;102644.00;;;4.10
20736;BMP180;10528;52.124;5.196;2022-12-18T01:28:54;102650.00;;;4.20
20736;BMP180;10528;52.124;5.196;2022-12-18T01:31:29;102645.00;;;4.20
20736;BMP180;10528;52.124;5.196;2022-12-18T01:33:59;102650.00;;;4.20
20736;BMP180;10528;52.124;5.196;2022-12-18T01:36:30;102654.00;;;4.10
20736;BMP180;10528;52.124;5.196;2022-12-18T01:39:06;102658.00;;;4.10
20736;BMP180;10528;52.124;5.196;2022-12-18T01:41:34;102665.00;;;4.10
20736;BMP180;10528;52.124;5.196;2022-12-18T01:45:04;102651.00;;;4.10
20736;BMP180;10528;52.124;5.196;2022-12-18T01:47:41;102654.00;;;4.10
20736;BMP180;10528;52.124;5.196;2022-12-18T01:52:52;102661.00;;;4.00
20736;BMP180;10528;52.124;5.196;2022-12-18T01:55:23;102669.00;;;4.00
20736;BMP180;10528;52.124;5.196;2022-12-18T01:57:56;102656.00;;;4.00
20736;BMP180;10528;52.124;5.196;2022-12-18T02:00:25;102677.00;;;4.00
20736;BMP180;10528;52.124;5.196;2022-12-18T02:02:55;102661.00;;;4.00
20736;BMP180;10528;52.124;5.196;2022-12-18T02:08:32;102666.00;;;4.00
20736;BMP180;10528;52.124;5.196;2022-12-18T02:17:29;102685.00;;;3.90
20736;BMP180;10528;52.124;5.196;2022-12-18T02:20:28;102681.00;;;3.90
20736;BMP180;10528;52.124;5.196;2022-12-18T02:23:16;102696.00;;;3.80
20736;BMP180;10528;52.124;5.196;2022-12-18T02:29:02;102675.00;;;3.80
20736;BMP180;10528;52.124;5.196;2022-12-18T02:31:39;102677.00;;;3.70
20736;BMP180;10528;52.124;5.196;2022-12-18T02:34:09;102667.00;;;3.70
20736;BMP180;10528;52.124;5.196;2022-12-18T02:36:41;102675.00;;;3.70
20736;BMP180;10528;52.124;5.196;2022-12-18T02:39:12;102669.00;;;3.60
20736;BMP180;10528;52.124;5.196;2022-12-18T02:41:48;102678.00;;;3.60
20736;BMP180;10528;52.124;5.196;2022-12-18T02:44:15;102666.00;;;3.60
20736;BMP180;10528;52.124;5.196;2022-12-18T02:46:50;102648.00;;;3.50
20736;BMP180;10528;52.124;5.196;2022-12-18T02:53:14;102658.00;;;3.40
20736;BMP180;10528;52.124;5.196;2022-12-18T02:56:12;102651.00;;;3.40
20736;BMP180;10528;52.124;5.196;2022-12-18T03:05:05;102643.00;;;3.20
20736;BMP180;10528;52.124;5.196;2022-12-18T03:10:34;102629.00;;;3.10
20736;BMP180;10528;52.124;5.196;2022-12-18T03:13:20;102631.00;;;3.10
20736;BMP180;10528;52.124;5.196;2022-12-18T03:15:55;102622.00;;;3.10
20736;BMP180;10528;52.124;5.196;2022-12-18T03:18:33;102628.00;;;3.00
20736;BMP180;10528;52.124;5.196;2022-12-18T03:21:06;102619.00;;;3.00
20736;BMP180;10528;52.124;5.196;2022-12-18T03:23:44;102612.00;;;3.00
20736;BMP180;10528;52.124;5.196;2022-12-18T03:26:18;102608.00;;;3.00
20736;BMP180;10528;52.124;5.196;2022-12-18T03:29:09;102608.00;;;2.90
20736;BMP180;10528;52.124;5.196;2022-12-18T03:31:40;102590.00;;;2.90
20736;BMP180;10528;52.124;5.196;2022-12-18T03:34:16;102600.00;;;2.90
20736;BMP180;10528;52.124;5.196;2022-12-18T03:36:46;102597.00;;;2.90
20736;BMP180;10528;52.124;5.196;2022-12-18T03:39:14;102594.00;;;2.80
20736;BMP180;10528;52.124;5.196;2022-12-18T03:41:51;102601.00;;;2.80
20736;BMP180;10528;52.124;5.196;2022-12-18T03:44:58;102602.00;;;2.80
20736;BMP180;10528;52.124;5.196;2022-12-18T03:47:28;102588.00;;;2.80
20736;BMP180;10528;52.124;5.196;2022-12-18T03:50:20;102602.00;;;2.80
20736;BMP180;10528;52.124;5.196;2022-12-18T03:55:36;102589.00;;;2.70
20736;BMP180;10528;52.124;5.196;2022-12-18T03:58:08;102588.00;;;2.70
20736;BMP180;10528;52.124;5.196;2022-12-18T04:00:54;102575.00;;;2.70
20736;BMP180;10528;52.124;5.196;2022-12-18T04:03:24;102571.00;;;2.70
20736;BMP180;10528;52.124;5.196;2022-12-18T04:05:55;102565.00;;;2.60
20736;BMP180;10528;52.124;5.196;2022-12-18T04:08:24;102560.00;;;2.60
20736;BMP180;10528;52.124;5.196;2022-12-18T04:11:01;102558.00;;;2.60
20736;BMP180;10528;52.124;5.196;2022-12-18T04:13:32;102556.00;;;2.60
20736;BMP180;10528;52.124;5.196;2022-12-18T04:16:02;102544.00;;;2.60
20736;BMP180;10528;52.124;5.196;2022-12-18T04:18:30;102547.00;;;2.50
20736;BMP180;10528;52.124;5.196;2022-12-18T04:20:58;102550.00;;;2.50
20736;BMP180;10528;52.124;5.196;2022-12-18T04:23:25;102545.00;;;2.50
20736;BMP180;10528;52.124;5.196;2022-12-18T04:25:56;102559.00;;;2.50
20736;BMP180;10528;52.124;5.196;2022-12-18T04:28:37;102561.00;;;2.50
20736;BMP180;10528;52.124;5.196;2022-12-18T04:31:05;102547.00;;;2.50
20736;BMP180;10528;52.124;5.196;2022-12-18T04:33:31;102561.00;;;2.50
20736;BMP180;10528;52.124;5.196;2022-12-18T04:35:59;102561.00;;;2.50
20736;BMP180;10528;52.124;5.196;2022-12-18T04:38:26;102566.00;;;2.50
20736;BMP180;10528;52.124;5.196;2022-12-18T04:41:01;102577.00;;;2.50
20736;BMP180;10528;52.124;5.196;2022-12-18T04:43:29;102581.00;;;2.50
20736;BMP180;10528;52.124;5.196;2022-12-18T04:46:07;102583.00;;;2.50
20736;BMP180;10528;52.124;5.196;2022-12-18T04:48:35;102577.00;;;2.40
20736;BMP180;10528;52.124;5.196;2022-12-18T04:51:03;102588.00;;;2.40
20736;BMP180;10528;52.124;5.196;2022-12-18T04:53:30;102588.00;;;2.40
20736;BMP180;10528;52.124;5.196;2022-12-18T04:56:23;102593.00;;;2.40
20736;BMP180;10528;52.124;5.196;2022-12-18T04:58:50;102582.00;;;2.40
20736;BMP180;10528;52.124;5.196;2022-12-18T05:01:18;102602.00;;;2.40
20736;BMP180;10528;52.124;5.196;2022-12-18T05:03:45;102604.00;;;2.40
20736;BMP180;10528;52.124;5.196;2022-12-18T05:06:12;102606.00;;;2.40
20736;BMP180;10528;52.124;5.196;2022-12-18T05:08:39;102597.00;;;2.30
20736;BMP180;10528;52.124;5.196;2022-12-18T05:11:11;102609.00;;;2.30
20736;BMP180;10528;52.124;5.196;2022-12-18T05:13:38;102602.00;;;2.30
20736;BMP180;10528;52.124;5.196;2022-12-18T05:16:07;102613.00;;;2.30
20736;BMP180;10528;52.124;5.196;2022-12-18T05:18:34;102609.00;;;2.30
20736;BMP180;10528;52.124;5.196;2022-12-18T05:21:02;102608.00;;;2.30
20736;BMP180;10528;52.124;5.196;2022-12-18T05:23:29;102616.00;;;2.20
20736;BMP180;10528;52.124;5.196;2022-12-18T05:26:02;102627.00;;;2.20
20736;BMP180;10528;52.124;5.196;2022-12-18T05:28:32;102623.00;;;2.20
20736;BMP180;10528;52.124;5.196;2022-12-18T05:31:02;102623.00;;;2.20
20736;BMP180;10528;52.124;5.196;2022-12-18T05:33:33;102622.00;;;2.20
20736;BMP180;10528;52.124;5.196;2022-12-18T05:36:03;102618.00;;;2.20
20736;BMP180;10528;52.124;5.196;2022-12-18T05:38:32;102613.00;;;2.20
20736;BMP180;10528;52.124;5.196;2022-12-18T05:40:59;102614.00;;;2.10
20736;BMP180;10528;52.124;5.196;2022-12-18T05:43:26;102605.00;;;2.10
20736;BMP180;10528;52.124;5.196;2022-12-18T05:45:54;102596.00;;;2.10
20736;BMP180;10528;52.124;5.196;2022-12-18T05:48:21;102599.00;;;2.10
20736;BMP180;10528;52.124;5.196;2022-12-18T05:50:50;102605.00;;;2.10
20736;BMP180;10528;52.124;5.196;2022-12-18T05:53:19;102597.00;;;2.10
20736;BMP180;10528;52.124;5.196;2022-12-18T05:55:47;102600.00;;;2.10
20736;BMP180;10528;52.124;5.196;2022-12-18T05:58:15;102594.00;;;2.10
20736;BMP180;10528;52.124;5.196;2022-12-18T06:00:45;102573.00;;;2.10
20736;BMP180;10528;52.124;5.196;2022-12-18T06:03:13;102571.00;;;2.10
20736;BMP180;10528;52.124;5.196;2022-12-18T06:05:45;102579.00;;;2.10
20736;BMP180;10528;52.124;5.196;2022-12-18T06:08:13;102576.00;;;2.10
20736;BMP180;10528;52.124;5.196;2022-12-18T06:10:41;102576.00;;;2.00
20736;BMP180;10528;52.124;5.196;2022-12-18T06:13:08;102570.00;;;2.00
20736;BMP180;10528;52.124;5.196;2022-12-18T06:15:38;102553.00;;;2.00
20736;BMP180;10528;52.124;5.196;2022-12-18T06:18:05;102569.00;;;2.00
20736;BMP180;10528;52.124;5.196;2022-12-18T06:20:32;102562.00;;;2.00
20736;BMP180;10528;52.124;5.196;2022-12-18T06:23:00;102561.00;;;2.00
20736;BMP180;10528;52.124;5.196;2022-12-18T06:25:27;102561.00;;;2.00
20736;BMP180;10528;52.124;5.196;2022-12-18T06:27:54;102564.00;;;2.00
20736;BMP180;10528;52.124;5.196;2022-12-18T06:30:21;102573.00;;;1.90
20736;BMP180;10528;52.124;5.196;2022-12-18T06:32:49;102561.00;;;1.90
20736;BMP180;10528;52.124;5.196;2022-12-18T06:35:23;102556.00;;;2.00
20736;BMP180;10528;52.124;5.196;2022-12-18T06:37:49;102557.00;;;2.00
20736;BMP180;10528;52.124;5.196;2022-12-18T06:40:17;102552.00;;;2.00
20736;BMP180;10528;52.124;5.196;2022-12-18T06:42:43;102550.00;;;1.90
20736;BMP180;10528;52.124;5.196;2022-12-18T06:45:10;102540.00;;;1.90
20736;BMP180;10528;52.124;5.196;2022-12-18T06:47:41;102537.00;;;1.90
20736;BMP180;10528;52.124;5.196;2022-12-18T06:50:08;102534.00;;;1.90
20736;BMP180;10528;52.124;5.196;2022-12-18T06:52:35;102518.00;;;1.90
20736;BMP180;10528;52.124;5.196;2022-12-18T06:55:02;102523.00;;;1.90
20736;BMP180;10528;52.124;5.196;2022-12-18T06:57:29;102512.00;;;1.90
20736;BMP180;10528;52.124;5.196;2022-12-18T06:59:56;102514.00;;;1.90
20736;BMP180;10528;52.124;5.196;2022-12-18T07:02:23;102522.00;;;1.90
20736;BMP180;10528;52.124;5.196;2022-12-18T07:04:50;102523.00;;;1.90
20736;BMP180;10528;52.124;5.196;2022-12-18T07:07:17;102518.00;;;1.90
20736;BMP180;10528;52.124;5.196;2022-12-18T07:09:44;102511.00;;;1.90
20736;BMP180;10528;52.124;5.196;2022-12-18T07:12:11;102500.00;;;1.90
20736;BMP180;10528;52.124;5.196;2022-12-18T07:14:38;102507.00;;;1.90
20736;BMP180;10528;52.124;5.196;2022-12-18T07:17:05;102514.00;;;1.90
20736;BMP180;10528;52.124;5.196;2022-12-18T07:19:32;102507.00;;;1.90
20736;BMP180;10528;52.124;5.196;2022-12-18T07:22:00;102501.00;;;1.90
20736;BMP180;10528;52.124;5.196;2022-12-18T07:24:27;102489.00;;;1.90
20736;BMP180;10528;52.124;5.196;2022-12-18T07:26:54;102497.00;;;1.90
20736;BMP180;10528;52.124;5.196;2022-12-18T07:29:21;102504.00;;;1.90
20736;BMP180;10528;52.124;5.196;2022-12-18T07:31:48;102502.00;;;1.90
20736;BMP180;10528;52.124;5.196;2022-12-18T07:34:15;102488.00;;;1.90
20736;BMP180;10528;52.124;5.196;2022-12-18T07:36:43;102478.00;;;1.90
20736;BMP180;10528;52.124;5.196;2022-12-18T07:39:13;102474.00;;;1.90
20736;BMP180;10528;52.124;5.196;2022-12-18T07:41:40;102476.00;;;1.90
20736;BMP180;10528;52.124;5.196;2022-12-18T07:44:15;102470.00;;;1.80
20736;BMP180;10528;52.124;5.196;2022-12-18T07:46:42;102462.00;;;1.80
20736;BMP180;10528;52.124;5.196;2022-12-18T07:49:08;102464.00;;;1.80
20736;BMP180;10528;52.124;5.196;2022-12-18T07:51:35;102462.00;;;1.80
20736;BMP180;10528;52.124;5.196;2022-12-18T07:54:02;102448.00;;;1.80
20736;BMP180;10528;52.124;5.196;2022-12-18T07:56:29;102458.00;;;1.80
20736;BMP180;10528;52.124;5.196;2022-12-18T07:58:58;102451.00;;;1.80
20736;BMP180;10528;52.124;5.196;2022-12-18T08:01:28;102451.00;;;1.80
20736;BMP180;10528;52.124;5.196;2022-12-18T08:03:57;102436.00;;;1.80
20736;BMP180;10528;52.124;5.196;2022-12-18T08:06:24;102440.00;;;1.80
20736;BMP180;10528;52.124;5.196;2022-12-18T08:08:53;102437.00;;;1.90
20736;BMP180;10528;52.124;5.196;2022-12-18T08:11:21;102437.00;;;1.90
20736;BMP180;10528;52.124;5.196;2022-12-18T08:13:48;102455.00;;;1.90
20736;BMP180;10528;52.124;5.196;2022-12-18T08:16:15;102461.00;;;1.90
20736;BMP180;10528;52.124;5.196;2022-12-18T08:18:42;102457.00;;;2.00
20736;BMP180;10528;52.124;5.196;2022-12-18T08:21:22;102465.00;;;2.00
20736;BMP180;10528;52.124;5.196;2022-12-18T08:23:51;102462.00;;;2.00
20736;BMP180;10528;52.124;5.196;2022-12-18T08:26:20;102471.00;;;2.10
20736;BMP180;10528;52.124;5.196;2022-12-18T08:28:49;102470.00;;;2.10
20736;BMP180;10528;52.124;5.196;2022-12-18T08:31:17;102461.00;;;2.10
20736;BMP180;10528;52.124;5.196;2022-12-18T08:33:45;102474.00;;;2.10
20736;BMP180;10528;52.124;5.196;2022-12-18T08:36:14;102481.00;;;2.20
20736;BMP180;10528;52.124;5.196;2022-12-18T08:38:41;102470.00;;;2.20
20736;BMP180;10528;52.124;5.196;2022-12-18T08:41:11;102479.00;;;2.20
20736;BMP180;10528;52.124;5.196;2022-12-18T08:43:39;102464.00;;;2.30
20736;BMP180;10528;52.124;5.196;2022-12-18T08:46:27;102465.00;;;2.30
20736;BMP180;10528;52.124;5.196;2022-12-18T08:48:57;102455.00;;;2.30
20736;BMP180;10528;52.124;5.196;2022-12-18T08:51:24;102461.00;;;2.30
20736;BMP180;10528;52.124;5.196;2022-12-18T08:53:51;102461.00;;;2.30
20736;BMP180;10528;52.124;5.196;2022-12-18T08:56:18;102458.00;;;2.40
20736;BMP180;10528;52.124;5.196;2022-12-18T08:58:45;102455.00;;;2.40
20736;BMP180;10528;52.124;5.196;2022-12-18T09:01:13;102453.00;;;2.40
20736;BMP180;10528;52.124;5.196;2022-12-18T09:03:40;102445.00;;;2.50
20736;BMP180;10528;52.124;5.196;2022-12-18T09:06:09;102440.00;;;2.50
20736;BMP180;10528;52.124;5.196;2022-12-18T09:08:35;102447.00;;;2.60
20736;BMP180;10528;52.124;5.196;2022-12-18T09:11:04;102463.00;;;2.60
20736;BMP180;10528;52.124;5.196;2022-12-18T09:13:30;102470.00;;;2.60
20736;BMP180;10528;52.124;5.196;2022-12-18T09:15:58;102457.00;;;2.60
20736;BMP180;10528;52.124;5.196;2022-12-18T09:18:25;102466.00;;;2.70
20736;BMP180;10528;52.124;5.196;2022-12-18T09:20:52;102468.00;;;2.70
20736;BMP180;10528;52.124;5.196;2022-12-18T09:23:21;102458.00;;;2.80
20736;BMP180;10528;52.124;5.196;2022-12-18T09:25:48;102464.00;;;2.80
20736;BMP180;10528;52.124;5.196;2022-12-18T09:28:18;102466.00;;;2.90
20736;BMP180;10528;52.124;5.196;2022-12-18T09:30:48;102456.00;;;2.90
20736;BMP180;10528;52.124;5.196;2022-12-18T09:33:16;102445.00;;;3.00
20736;BMP180;10528;52.124;5.196;2022-12-18T09:35:45;102436.00;;;3.00
20736;BMP180;10528;52.124;5.196;2022-12-18T09:38:18;102443.00;;;3.10
20736;BMP180;10528;52.124;5.196;2022-12-18T09:40:50;102428.00;;;3.10
20736;BMP180;10528;52.124;5.196;2022-12-18T09:43:24;102434.00;;;3.20
20736;BMP180;10528;52.124;5.196;2022-12-18T09:46:08;102428.00;;;3.20
20736;BMP180;10528;52.124;5.196;2022-12-18T09:48:45;102443.00;;;3.20
20736;BMP180;10528;52.124;5.196;2022-12-18T09:51:19;102434.00;;;3.30
20736;BMP180;10528;52.124;5.196;2022-12-18T09:53:54;102425.00;;;3.30
20736;BMP180;10528;52.124;5.196;2022-12-18T09:56:27;102428.00;;;3.30
20736;BMP180;10528;52.124;5.196;2022-12-18T09:59:01;102423.00;;;3.40
20736;BMP180;10528;52.124;5.196;2022-12-18T10:01:30;102417.00;;;3.40
20736;BMP180;10528;52.124;5.196;2022-12-18T10:04:10;102416.00;;;3.40
20736;BMP180;10528;52.124;5.196;2022-12-18T10:07:02;102409.00;;;3.50
20736;BMP180;10528;52.124;5.196;2022-12-18T10:09:46;102409.00;;;3.50
20736;BMP180;10528;52.124;5.196;2022-12-18T10:15:30;102416.00;;;3.60
20736;BMP180;10528;52.124;5.196;2022-12-18T10:18:24;102415.00;;;3.60
20736;BMP180;10528;52.124;5.196;2022-12-18T10:21:10;102420.00;;;3.70
20736;BMP180;10528;52.124;5.196;2022-12-18T10:24:20;102415.00;;;3.70
20736;BMP180;10528;52.124;5.196;2022-12-18T10:26:43;102406.00;;;3.80
20736;BMP180;10528;52.124;5.196;2022-12-18T10:29:15;102403.00;;;3.80
20736;BMP180;10528;52.124;5.196;2022-12-18T10:31:43;102410.00;;;3.90
20736;BMP180;10528;52.124;5.196;2022-12-18T10:34:13;102410.00;;;3.90
20736;BMP180;10528;52.124;5.196;2022-12-18T10:36:42;102408.00;;;4.00
20736;BMP180;10528;52.124;5.196;2022-12-18T10:39:22;102406.00;;;4.00
20736;BMP180;10528;52.124;5.196;2022-12-18T10:41:49;102394.00;;;4.00
20736;BMP180;10528;52.124;5.196;2022-12-18T10:44:23;102384.00;;;4.10
20736;BMP180;10528;52.124;5.196;2022-12-18T10:47:06;102384.00;;;4.10
20736;BMP180;10528;52.124;5.196;2022-12-18T10:49:49;102378.00;;;4.10
20736;BMP180;10528;52.124;5.196;2022-12-18T10:52:23;102387.00;;;4.20
20736;BMP180;10528;52.124;5.196;2022-12-18T10:55:04;102375.00;;;4.20
20736;BMP180;10528;52.124;5.196;2022-12-18T10:57:37;102369.00;;;4.30
20736;BMP180;10528;52.124;5.196;2022-12-18T11:00:29;102371.00;;;4.30
20736;BMP180;10528;52.124;5.196;2022-12-18T11:02:57;102345.00;;;4.30
20736;BMP180;10528;52.124;5.196;2022-12-18T11:05:30;102355.00;;;4.30
20736;BMP180;10528;52.124;5.196;2022-12-18T11:07:58;102359.00;;;4.40
20736;BMP180;10528;52.124;5.196;2022-12-18T11:10:35;102356.00;;;4.40
20736;BMP180;10528;52.124;5.196;2022-12-18T11:13:23;102351.00;;;4.50
20736;BMP180;10528;52.124;5.196;2022-12-18T11:15:51;102339.00;;;4.50
20736;BMP180;10528;52.124;5.196;2022-12-18T11:18:32;102340.00;;;4.50
20736;BMP180;10528;52.124;5.196;2022-12-18T11:21:09;102338.00;;;4.60
20736;BMP180;10528;52.124;5.196;2022-12-18T11:23:49;102325.00;;;4.60
20736;BMP180;10528;52.124;5.196;2022-12-18T11:26:17;102329.00;;;4.60
20736;BMP180;10528;52.124;5.196;2022-12-18T11:28:49;102341.00;;;4.70
20736;BMP180;10528;52.124;5.196;2022-12-18T11:31:25;102340.00;;;4.70
20736;BMP180;10528;52.124;5.196;2022-12-18T11:34:28;102335.00;;;4.80
20736;BMP180;10528;52.124;5.196;2022-12-18T11:36:59;102339.00;;;4.80
20736;BMP180;10528;52.124;5.196;2022-12-18T11:39:37;102335.00;;;4.80
20736;BMP180;10528;52.124;5.196;2022-12-18T11:42:34;102334.00;;;4.90
20736;BMP180;10528;52.124;5.196;2022-12-18T11:51:04;102316.00;;;5.00
20736;BMP180;10528;52.124;5.196;2022-12-18T11:53:32;102317.00;;;5.00
20736;BMP180;10528;52.124;5.196;2022-12-18T12:02:42;102278.00;;;5.10
20736;BMP180;10528;52.124;5.196;2022-12-18T12:05:20;102280.00;;;5.10
20736;BMP180;10528;52.124;5.196;2022-12-18T12:08:35;102259.00;;;5.10
20736;BMP180;10528;52.124;5.196;2022-12-18T12:17:21;102248.00;;;5.20
20736;BMP180;10528;52.124;5.196;2022-12-18T12:20:15;102257.00;;;5.20
20736;BMP180;10528;52.124;5.196;2022-12-18T12:23:31;102251.00;;;5.20
20736;BMP180;10528;52.124;5.196;2022-12-18T12:29:27;102251.00;;;5.30
20736;BMP180;10528;52.124;5.196;2022-12-18T12:35:46;102242.00;;;5.30
20736;BMP180;10528;52.124;5.196;2022-12-18T12:38:21;102232.00;;;5.40
20736;BMP180;10528;52.124;5.196;2022-12-18T12:41:03;102232.00;;;5.40
20736;BMP180;10528;52.124;5.196;2022-12-18T12:43:44;102230.00;;;5.50
20736;BMP180;10528;52.124;5.196;2022-12-18T12:46:20;102221.00;;;5.50
20736;BMP180;10528;52.124;5.196;2022-12-18T12:49:00;102225.00;;;5.50
20736;BMP180;10528;52.124;5.196;2022-12-18T12:51:35;102213.00;;;5.60
20736;BMP180;10528;52.124;5.196;2022-12-18T12:54:12;102211.00;;;5.60
20736;BMP180;10528;52.124;5.196;2022-12-18T12:56:59;102221.00;;;5.60
20736;BMP180;10528;52.124;5.196;2022-12-18T13:02:21;102219.00;;;5.60
20736;BMP180;10528;52.124;5.196;2022-12-18T13:07:54;102213.00;;;5.60
20736;BMP180;10528;52.124;5.196;2022-12-18T13:15:46;102214.00;;;5.70
20736;BMP180;10528;52.124;5.196;2022-12-18T13:18:18;102218.00;;;5.70
20736;BMP180;10528;52.124;5.196;2022-12-18T13:23:35;102205.00;;;5.70
20736;BMP180;10528;52.124;5.196;2022-12-18T13:36:57;102184.00;;;5.80
20736;BMP180;10528;52.124;5.196;2022-12-18T13:39:38;102177.00;;;5.80
20736;BMP180;10528;52.124;5.196;2022-12-18T13:44:39;102163.00;;;5.80
20736;BMP180;10528;52.124;5.196;2022-12-18T13:47:33;102153.00;;;5.80
20736;BMP180;10528;52.124;5.196;2022-12-18T13:50:12;102144.00;;;5.80
20736;BMP180;10528;52.124;5.196;2022-12-18T13:52:52;102150.00;;;5.80
20736;BMP180;10528;52.124;5.196;2022-12-18T13:55:22;102141.00;;;5.80
20736;BMP180;10528;52.124;5.196;2022-12-18T13:57:49;102134.00;;;5.90
20736;BMP180;10528;52.124;5.196;2022-12-18T14:00:29;102132.00;;;5.90
20736;BMP180;10528;52.124;5.196;2022-12-18T14:02:58;102136.00;;;5.90
20736;BMP180;10528;52.124;5.196;2022-12-18T14:05:26;102130.00;;;5.90
20736;BMP180;10528;52.124;5.196;2022-12-18T14:07:55;102130.00;;;6.00
20736;BMP180;10528;52.124;5.196;2022-12-18T14:10:26;102126.00;;;6.00
20736;BMP180;10528;52.124;5.196;2022-12-18T14:13:28;102132.00;;;6.00
20736;BMP180;10528;52.124;5.196;2022-12-18T14:15:57;102133.00;;;6.00
20736;BMP180;10528;52.124;5.196;2022-12-18T14:21:22;102129.00;;;6.00
20736;BMP180;10528;52.124;5.196;2022-12-18T14:24:21;102133.00;;;6.00
20736;BMP180;10528;52.124;5.196;2022-12-18T14:26:52;102127.00;;;6.00
20736;BMP180;10528;52.124;5.196;2022-12-18T14:29:30;102122.00;;;6.00
20736;BMP180;10528;52.124;5.196;2022-12-18T14:32:11;102090.00;;;6.00
20736;BMP180;10528;52.124;5.196;2022-12-18T14:34:52;102102.00;;;6.00
20736;BMP180;10528;52.124;5.196;2022-12-18T14:37:24;102092.00;;;6.00
20736;BMP180;10528;52.124;5.196;2022-12-18T14:39:54;102090.00;;;6.00
20736;BMP180;10528;52.124;5.196;2022-12-18T14:42:21;102089.00;;;6.10
20736;BMP180;10528;52.124;5.196;2022-12-18T14:44:48;102094.00;;;6.10
20736;BMP180;10528;52.124;5.196;2022-12-18T14:47:35;102098.00;;;6.10
20736;BMP180;10528;52.124;5.196;2022-12-18T14:50:02;102087.00;;;6.10
20736;BMP180;10528;52.124;5.196;2022-12-18T14:52:31;102088.00;;;6.10
20736;BMP180;10528;52.124;5.196;2022-12-18T14:54:58;102087.00;;;6.10
20736;BMP180;10528;52.124;5.196;2022-12-18T14:57:36;102079.00;;;6.10
20736;BMP180;10528;52.124;5.196;2022-12-18T15:00:20;102077.00;;;6.10
20736;BMP180;10528;52.124;5.196;2022-12-18T15:02:52;102080.00;;;6.10
20736;BMP180;10528;52.124;5.196;2022-12-18T15:05:27;102075.00;;;6.10
20736;BMP180;10528;52.124;5.196;2022-12-18T15:07:59;102075.00;;;6.10
20736;BMP180;10528;52.124;5.196;2022-12-18T15:10:34;102061.00;;;6.10
20736;BMP180;10528;52.124;5.196;2022-12-18T15:18:15;102066.00;;;6.10
20736;BMP180;10528;52.124;5.196;2022-12-18T15:20:50;102061.00;;;6.10
20736;BMP180;10528;52.124;5.196;2022-12-18T15:23:38;102064.00;;;6.10
20736;BMP180;10528;52.124;5.196;2022-12-18T15:26:15;102051.00;;;6.10
20736;BMP180;10528;52.124;5.196;2022-12-18T15:28:51;102051.00;;;6.10
20736;BMP180;10528;52.124;5.196;2022-12-18T15:31:32;102062.00;;;6.10
20736;BMP180;10528;52.124;5.196;2022-12-18T15:34:12;102062.00;;;6.10
20736;BMP180;10528;52.124;5.196;2022-12-18T15:36:40;102045.00;;;6.10
20736;BMP180;10528;52.124;5.196;2022-12-18T15:39:11;102047.00;;;6.10
20736;BMP180;10528;52.124;5.196;2022-12-18T15:41:38;102050.00;;;6.10
20736;BMP180;10528;52.124;5.196;2022-12-18T15:44:25;102056.00;;;6.10
20736;BMP180;10528;52.124;5.196;2022-12-18T15:46:52;102030.00;;;6.10
20736;BMP180;10528;52.124;5.196;2022-12-18T15:49:22;102027.00;;;6.10
20736;BMP180;10528;52.124;5.196;2022-12-18T15:51:53;102044.00;;;6.10
20736;BMP180;10528;52.124;5.196;2022-12-18T15:54:21;102031.00;;;6.10
20736;BMP180;10528;52.124;5.196;2022-12-18T15:57:10;102039.00;;;6.10
20736;BMP180;10528;52.124;5.196;2022-12-18T15:59:55;102033.00;;;6.10
20736;BMP180;10528;52.124;5.196;2022-12-18T16:02:25;102022.00;;;6.10
20736;BMP180;10528;52.124;5.196;2022-12-18T16:04:52;102026.00;;;6.10
20736;BMP180;10528;52.124;5.196;2022-12-18T16:07:20;102009.00;;;6.10
20736;BMP180;10528;52.124;5.196;2022-12-18T16:09:51;102009.00;;;6.10
20736;BMP180;10528;52.124;5.196;2022-12-18T16:12:23;102004.00;;;6.10
20736;BMP180;10528;52.124;5.196;2022-12-18T16:14:51;101999.00;;;6.20
20736;BMP180;10528;52.124;5.196;2022-12-18T16:17:20;102000.00;;;6.20